Time;durP1;ratioP1;P1;durP2;ratioP2;P2;SDS_P1;SDS_P2;PMS_P1;PMS_P2;Temp;Humidity;BMP_temperature;BMP_pressure;BME280_temperature;BME280_humidity;BME280_pressure;Samples;Min_cycle;Max_cycle;Signal;HPM_P1;HPM_P2
2021/01/08 00:01:05;;;;;;;9.20;7.97;;;;;;;;;;5110670;28;20175;-43
2021/01/08 00:03:30;;;;;;;9.15;7.80;;;;;;;;;;5111059;28;20184;-44
2021/01/08 00:05:55;;;;;;;9.68;7.78;;;;;;;;;;5111304;28;20593;-44
2021/01/08 00:08:20;;;;;;;9.70;7.35;;;;;;;;;;5108832;28;20235;-43
2021/01/08 00:10:48;;;;;;;7.82;7.03;;;;;;;;;;5115973;27;20188;-43
2021/01/08 00:13:13;;;;;;;8.20;7.40;;;;;;;;;;5110648;28;20222;-44
2021/01/08 00:15:38;;;;;;;8.93;7.10;;;;;;;;;;5111148;28;20602;-44
2021/01/08 00:18:03;;;;;;;8.52;7.57;;;;;;;;;;5106750;28;20229;-44
2021/01/08 00:20:28;;;;;;;7.10;6.40;;;;;;;;;;5107847;28;20256;-44
2021/01/08 00:22:53;;;;;;;7.77;6.90;;;;;;;;;;5110905;28;20651;-44
2021/01/08 00:25:18;;;;;;;8.50;6.80;;;;;;;;;;5110743;28;20562;-44
2021/01/08 00:27:44;;;;;;;8.18;7.03;;;;;;;;;;5108670;28;20196;-44
2021/01/08 00:30:09;;;;;;;7.40;6.60;;;;;;;;;;5110132;28;20644;-44
2021/01/08 00:32:35;;;;;;;9.00;8.00;;;;;;;;;;5110593;28;20217;-44
2021/01/08 00:35:00;;;;;;;8.65;7.75;;;;;;;;;;5098861;27;20166;-44
2021/01/08 00:37:25;;;;;;;7.93;6.78;;;;;;;;;;5108237;28;20883;-44
2021/01/08 00:39:51;;;;;;;8.27;7.20;;;;;;;;;;5100163;28;20169;-44
2021/01/08 00:42:16;;;;;;;7.97;7.00;;;;;;;;;;5109732;28;20166;-44
2021/01/08 00:44:42;;;;;;;7.93;7.13;;;;;;;;;;5109832;28;20680;-44
2021/01/08 00:47:07;;;;;;;8.60;7.80;;;;;;;;;;5103040;28;20176;-44
2021/01/08 00:49:32;;;;;;;8.07;7.27;;;;;;;;;;5110339;28;20636;-44
2021/01/08 00:51:57;;;;;;;7.97;7.17;;;;;;;;;;5109568;28;20181;-44
2021/01/08 00:54:23;;;;;;;7.50;6.82;;;;;;;;;;5110400;28;20255;-44
2021/01/08 00:56:48;;;;;;;9.20;7.78;;;;;;;;;;5109749;28;20188;-44
2021/01/08 00:59:13;;;;;;;7.90;7.10;;;;;;;;;;5109660;28;20664;-43
2021/01/08 01:01:38;;;;;;;8.87;7.83;;;;;;;;;;5109300;28;20275;-43
2021/01/08 01:04:04;;;;;;;8.07;7.13;;;;;;;;;;5109840;28;20708;-43
2021/01/08 01:06:30;;;;;;;9.17;6.80;;;;;;;;;;5110011;28;20184;-43
2021/01/08 01:08:56;;;;;;;8.63;7.30;;;;;;;;;;5109678;28;20232;-43
2021/01/08 01:11:21;;;;;;;8.80;7.70;;;;;;;;;;5109384;28;20621;-44
2021/01/08 01:13:47;;;;;;;8.57;7.37;;;;;;;;;;5109721;28;20176;-44
2021/01/08 01:16:13;;;;;;;9.90;7.97;;;;;;;;;;5109126;28;20178;-44
2021/01/08 01:18:39;;;;;;;7.50;6.70;;;;;;;;;;5109461;28;20614;-43
2021/01/08 01:21:04;;;;;;;9.80;8.07;;;;;;;;;;5109212;28;20637;-44
2021/01/08 01:23:29;;;;;;;8.20;7.30;;;;;;;;;;5109213;28;20183;-44
2021/01/08 01:25:54;;;;;;;8.73;7.50;;;;;;;;;;5109006;28;20197;-44
2021/01/08 01:28:19;;;;;;;10.57;7.18;;;;;;;;;;5109253;28;20200;-44
2021/01/08 01:30:44;;;;;;;9.80;7.83;;;;;;;;;;5110128;28;20172;-44
2021/01/08 01:33:09;;;;;;;8.05;6.95;;;;;;;;;;5110450;28;20223;-44
2021/01/08 01:35:34;;;;;;;7.93;7.13;;;;;;;;;;5110408;28;20662;-44
2021/01/08 01:38:01;;;;;;;8.25;7.45;;;;;;;;;;5109626;28;20177;-44
2021/01/08 01:40:27;;;;;;;8.67;7.60;;;;;;;;;;5109586;28;20226;-44
2021/01/08 01:42:52;;;;;;;8.67;7.77;;;;;;;;;;5110045;28;20626;-44
2021/01/08 01:45:17;;;;;;;8.63;7.72;;;;;;;;;;5110039;28;20259;-44
2021/01/08 01:47:42;;;;;;;9.40;7.60;;;;;;;;;;5109423;28;20580;-44
2021/01/08 01:50:08;;;;;;;8.57;7.67;;;;;;;;;;5109426;28;20306;-44
2021/01/08 01:52:35;;;;;;;7.97;7.00;;;;;;;;;;5114139;28;20173;-44
2021/01/08 01:55:00;;;;;;;8.77;7.83;;;;;;;;;;5115626;27;20184;-44
2021/01/08 01:57:25;;;;;;;8.10;7.17;;;;;;;;;;5113524;28;20603;-44
2021/01/08 01:59:50;;;;;;;8.48;7.57;;;;;;;;;;5113645;28;20566;-44
2021/01/08 02:02:21;;;;;;;8.35;7.15;;;;;;;;;;5112709;28;20198;-44
2021/01/08 02:04:47;;;;;;;9.07;7.87;;;;;;;;;;5112216;28;20551;-44
2021/01/08 02:07:12;;;;;;;8.50;7.70;;;;;;;;;;5113416;28;20592;-44
2021/01/08 02:09:37;;;;;;;8.52;7.65;;;;;;;;;;5113092;28;20211;-44
2021/01/08 02:12:02;;;;;;;9.07;7.17;;;;;;;;;;5112846;28;20200;-44
2021/01/08 02:14:28;;;;;;;8.63;7.73;;;;;;;;;;5113388;28;20184;-44
2021/01/08 02:16:54;;;;;;;8.63;7.77;;;;;;;;;;5113127;28;21723;-44
2021/01/08 02:19:38;;;;;;;8.33;7.53;;;;;;;;;;5113014;28;20602;-43
2021/01/08 02:22:15;;;;;;;9.10;7.10;;;;;;;;;;5112429;28;21178;-44
2021/01/08 02:24:45;;;;;;;8.47;7.30;;;;;;;;;;5109711;28;21174;-44
2021/01/08 02:27:10;;;;;;;8.87;8.00;;;;;;;;;;5112833;28;20673;-44
2021/01/08 02:29:36;;;;;;;9.17;7.20;;;;;;;;;;5113118;28;20646;-44
2021/01/08 02:32:01;;;;;;;10.30;8.33;;;;;;;;;;5112507;28;20639;-44
2021/01/08 02:34:27;;;;;;;7.30;6.60;;;;;;;;;;5109504;27;21008;-44
2021/01/08 02:36:52;;;;;;;8.37;7.47;;;;;;;;;;5107884;28;20182;-44
2021/01/08 02:39:18;;;;;;;7.50;6.80;;;;;;;;;;5109553;28;20176;-44
2021/01/08 02:41:44;;;;;;;7.90;6.97;;;;;;;;;;5111631;28;20653;-43
2021/01/08 02:44:11;;;;;;;9.33;7.90;;;;;;;;;;5112684;28;20180;-43
2021/01/08 02:46:36;;;;;;;7.97;7.20;;;;;;;;;;5110424;28;20667;-44
2021/01/08 02:49:01;;;;;;;7.85;6.72;;;;;;;;;;5109954;28;20741;-44
2021/01/08 02:51:27;;;;;;;9.93;8.93;;;;;;;;;;5111964;28;20170;-44
2021/01/08 02:53:54;;;;;;;8.57;7.70;;;;;;;;;;5112251;28;20170;-44
2021/01/08 02:56:22;;;;;;;7.90;7.00;;;;;;;;;;5110966;28;20173;-43
2021/01/08 02:58:47;;;;;;;7.93;7.13;;;;;;;;;;5110228;28;20688;-44
2021/01/08 03:01:13;;;;;;;7.57;6.80;;;;;;;;;;5111498;28;20686;-46
2021/01/08 03:03:38;;;;;;;8.53;7.67;;;;;;;;;;5112125;28;20170;-44
2021/01/08 03:06:04;;;;;;;7.70;6.47;;;;;;;;;;5111301;28;20181;-44
2021/01/08 03:08:31;;;;;;;9.10;8.20;;;;;;;;;;5109789;28;20244;-43
2021/01/08 03:10:57;;;;;;;7.53;6.83;;;;;;;;;;5111220;28;20695;-44
2021/01/08 03:13:22;;;;;;;8.00;7.20;;;;;;;;;;5111349;28;20596;-44
2021/01/08 03:15:48;;;;;;;8.37;7.50;;;;;;;;;;5111417;28;20842;-44
2021/01/08 03:18:13;;;;;;;8.90;8.00;;;;;;;;;;5109376;28;20169;-44
2021/01/08 03:20:38;;;;;;;8.00;7.25;;;;;;;;;;5111566;28;20697;-44
2021/01/08 03:23:04;;;;;;;8.40;7.50;;;;;;;;;;5111346;28;20169;-44
2021/01/08 03:25:29;;;;;;;8.23;7.43;;;;;;;;;;5111409;28;20203;-44
2021/01/08 03:27:54;;;;;;;7.53;6.73;;;;;;;;;;5112156;28;20692;-44
2021/01/08 03:30:20;;;;;;;7.57;6.87;;;;;;;;;;5109297;28;20170;-43
2021/01/08 03:32:45;;;;;;;8.90;7.93;;;;;;;;;;5112013;28;20188;-44
2021/01/08 03:35:10;;;;;;;8.53;7.37;;;;;;;;;;5111218;28;20182;-43
2021/01/08 03:37:36;;;;;;;8.03;7.23;;;;;;;;;;5111750;28;20200;-43
2021/01/08 03:40:02;;;;;;;9.27;8.27;;;;;;;;;;5109996;28;20234;-44
2021/01/08 03:42:27;;;;;;;8.77;7.87;;;;;;;;;;5111027;28;20624;-43
2021/01/08 03:44:52;;;;;;;10.35;8.35;;;;;;;;;;5111901;28;20182;-43
2021/01/08 03:47:17;;;;;;;9.18;7.72;;;;;;;;;;5110715;28;20221;-44
2021/01/08 03:49:42;;;;;;;13.73;10.45;;;;;;;;;;5110000;28;20174;-43
2021/01/08 03:52:08;;;;;;;12.07;10.38;;;;;;;;;;5111070;28;20631;-44
2021/01/08 03:54:34;;;;;;;13.03;10.10;;;;;;;;;;5111501;28;20227;-44
2021/01/08 03:56:59;;;;;;;12.03;10.70;;;;;;;;;;5111236;28;20169;-44
2021/01/08 03:59:24;;;;;;;12.50;10.00;;;;;;;;;;5110646;28;20188;-44
2021/01/08 04:01:49;;;;;;;10.17;9.07;;;;;;;;;;5110443;28;20178;-43
2021/01/08 04:04:14;;;;;;;9.25;8.35;;;;;;;;;;5109073;28;20711;-44
2021/01/08 04:06:40;;;;;;;10.02;9.02;;;;;;;;;;5110819;28;20628;-44
2021/01/08 04:09:05;;;;;;;10.55;9.45;;;;;;;;;;5108904;28;20198;-44
2021/01/08 04:11:30;;;;;;;10.95;9.85;;;;;;;;;;5110097;28;20214;-44
2021/01/08 04:13:55;;;;;;;12.10;10.90;;;;;;;;;;5110953;28;20646;-44
2021/01/08 04:16:20;;;;;;;9.98;8.88;;;;;;;;;;5110694;28;20197;-44
2021/01/08 04:18:45;;;;;;;10.00;9.00;;;;;;;;;;5108811;28;20184;-44
2021/01/08 04:21:10;;;;;;;9.68;8.70;;;;;;;;;;5109770;28;20256;-44
2021/01/08 04:23:36;;;;;;;10.27;9.10;;;;;;;;;;5111402;28;20187;-44
2021/01/08 04:26:01;;;;;;;11.40;9.40;;;;;;;;;;5110977;28;20275;-44
2021/01/08 04:28:26;;;;;;;10.45;9.30;;;;;;;;;;5110786;28;20281;-44
2021/01/08 04:30:51;;;;;;;10.30;9.13;;;;;;;;;;5106587;28;20186;-44
2021/01/08 04:33:16;;;;;;;9.87;8.80;;;;;;;;;;5105463;28;20236;-44
2021/01/08 04:35:41;;;;;;;11.13;9.85;;;;;;;;;;5105289;28;20179;-44
2021/01/08 04:38:06;;;;;;;9.60;8.60;;;;;;;;;;5104676;28;20191;-44
2021/01/08 04:40:32;;;;;;;8.57;7.75;;;;;;;;;;5106780;28;20177;-43
2021/01/08 04:42:57;;;;;;;10.40;8.23;;;;;;;;;;5109666;28;20177;-44
2021/01/08 04:45:22;;;;;;;9.83;8.83;;;;;;;;;;5110256;28;20505;-43
2021/01/08 04:47:48;;;;;;;9.10;8.20;;;;;;;;;;5110563;28;20205;-44
2021/01/08 04:50:14;;;;;;;8.67;7.80;;;;;;;;;;5108072;28;20266;-44
2021/01/08 04:52:39;;;;;;;10.00;8.27;;;;;;;;;;5110211;28;20177;-43
2021/01/08 04:55:04;;;;;;;9.80;8.80;;;;;;;;;;5110092;28;20172;-43
2021/01/08 04:57:32;;;;;;;9.47;8.47;;;;;;;;;;5109581;28;20186;-44
2021/01/08 04:59:57;;;;;;;9.13;7.50;;;;;;;;;;5112878;27;20194;-44
2021/01/08 05:02:23;;;;;;;8.73;7.90;;;;;;;;;;5109605;28;20599;-44
2021/01/08 05:04:48;;;;;;;10.10;8.33;;;;;;;;;;5110101;28;20164;-43
2021/01/08 05:07:13;;;;;;;8.37;7.47;;;;;;;;;;5110121;28;20180;-43
2021/01/08 05:09:50;;;;;;;8.67;7.77;;;;;;;;;;5110043;28;20914;-44
2021/01/08 05:12:15;;;;;;;10.67;8.00;;;;;;;;;;5107200;28;20175;-44
2021/01/08 05:14:40;;;;;;;9.38;8.48;;;;;;;;;;5110377;28;20597;-44
2021/01/08 05:17:05;;;;;;;9.67;8.70;;;;;;;;;;5110028;28;20242;-43
2021/01/08 05:19:31;;;;;;;10.43;8.80;;;;;;;;;;5109660;28;20289;-43
2021/01/08 05:21:56;;;;;;;11.30;9.10;;;;;;;;;;5105889;28;20185;-44
2021/01/08 05:24:22;;;;;;;11.30;10.20;;;;;;;;;;5109715;28;20647;-44
2021/01/08 05:26:50;;;;;;;12.30;10.40;;;;;;;;;;5112992;28;20175;-44
2021/01/08 05:29:15;;;;;;;12.50;10.43;;;;;;;;;;5114972;28;20636;-45
2021/01/08 05:31:41;;;;;;;11.15;9.73;;;;;;;;;;5111368;28;20756;-45
2021/01/08 05:34:06;;;;;;;10.90;9.80;;;;;;;;;;5109982;28;20184;-45
2021/01/08 05:36:32;;;;;;;13.20;9.87;;;;;;;;;;5112955;28;20602;-45
2021/01/08 05:38:58;;;;;;;10.53;9.37;;;;;;;;;;5112127;28;20181;-45
2021/01/08 05:41:24;;;;;;;12.37;9.67;;;;;;;;;;5106219;28;20254;-45
2021/01/08 05:43:49;;;;;;;11.10;9.33;;;;;;;;;;5111137;28;20641;-45
2021/01/08 05:46:25;;;;;;;11.60;10.37;;;;;;;;;;5111934;27;20664;-45
2021/01/08 05:48:51;;;;;;;11.60;10.50;;;;;;;;;;5110569;28;20208;-45
2021/01/08 05:51:17;;;;;;;12.30;9.60;;;;;;;;;;5109104;28;20586;-45
2021/01/08 05:53:45;;;;;;;11.57;10.27;;;;;;;;;;5110967;28;20602;-44
2021/01/08 05:56:14;;;;;;;11.50;9.57;;;;;;;;;;5110898;28;21137;-44
2021/01/08 05:58:39;;;;;;;10.57;9.57;;;;;;;;;;5110676;28;20599;-44
2021/01/08 06:01:04;;;;;;;10.90;9.77;;;;;;;;;;5107238;28;20624;-44
2021/01/08 06:03:30;;;;;;;11.00;9.70;;;;;;;;;;5109793;28;20180;-45
2021/01/08 06:05:56;;;;;;;11.90;10.57;;;;;;;;;;5110520;28;20218;-44
2021/01/08 06:08:23;;;;;;;12.20;10.80;;;;;;;;;;5110356;27;20189;-44
2021/01/08 06:10:50;;;;;;;14.87;11.00;;;;;;;;;;5108183;28;20594;-45
2021/01/08 06:13:16;;;;;;;13.13;11.73;;;;;;;;;;5109998;28;20593;-44
2021/01/08 06:15:41;;;;;;;12.40;10.50;;;;;;;;;;5109445;28;20664;-44
2021/01/08 06:18:08;;;;;;;13.30;11.80;;;;;;;;;;5110607;27;20633;-44
2021/01/08 06:20:43;;;;;;;11.50;10.30;;;;;;;;;;5103694;28;20243;-44
2021/01/08 06:23:08;;;;;;;12.93;10.63;;;;;;;;;;5109487;28;20595;-44
2021/01/08 06:25:34;;;;;;;13.30;11.37;;;;;;;;;;5108478;28;20648;-46
2021/01/08 06:28:03;;;;;;;12.83;11.20;;;;;;;;;;5089943;28;20671;-45
2021/01/08 06:30:32;;;;;;;11.73;10.50;;;;;;;;;;5089207;28;20587;-45
2021/01/08 06:33:01;;;;;;;12.87;11.47;;;;;;;;;;5105875;28;21209;-44
2021/01/08 06:35:29;;;;;;;12.80;11.50;;;;;;;;;;5108117;28;20605;-45
2021/01/08 06:37:57;;;;;;;13.87;12.40;;;;;;;;;;5088792;28;20581;-45
2021/01/08 06:40:25;;;;;;;12.53;11.30;;;;;;;;;;5088243;28;20674;-52
2021/01/08 06:42:53;;;;;;;12.47;11.27;;;;;;;;;;5096580;28;20700;-45
2021/01/08 06:45:20;;;;;;;12.80;10.93;;;;;;;;;;5108657;28;20613;-45
2021/01/08 06:47:46;;;;;;;12.73;11.40;;;;;;;;;;5108508;28;20634;-45
2021/01/08 06:50:14;;;;;;;12.47;11.17;;;;;;;;;;5108931;28;20585;-45
2021/01/08 06:52:42;;;;;;;12.20;10.90;;;;;;;;;;5104601;28;20589;-45
2021/01/08 06:55:09;;;;;;;11.73;10.37;;;;;;;;;;5107811;28;21170;-45
2021/01/08 06:57:36;;;;;;;13.13;11.73;;;;;;;;;;5096684;28;21185;-46
2021/01/08 07:00:03;;;;;;;13.60;12.00;;;;;;;;;;5108706;28;20626;-46
2021/01/08 07:02:30;;;;;;;14.77;11.43;;;;;;;;;;5104251;28;20651;-46
2021/01/08 07:04:55;;;;;;;14.57;11.70;;;;;;;;;;5111560;28;20598;-46
2021/01/08 07:07:22;;;;;;;14.60;13.00;;;;;;;;;;5111311;28;20649;-44
2021/01/08 07:09:47;;;;;;;14.33;12.83;;;;;;;;;;5111276;28;20261;-45
2021/01/08 07:12:12;;;;;;;16.53;13.20;;;;;;;;;;5109665;28;20587;-45
2021/01/08 07:14:38;;;;;;;15.20;12.83;;;;;;;;;;5111633;28;20237;-45
2021/01/08 07:17:07;;;;;;;14.77;12.80;;;;;;;;;;5111321;28;20248;-45
2021/01/08 07:19:32;;;;;;;15.83;13.20;;;;;;;;;;5092356;28;523190;-45
2021/01/08 07:22:01;;;;;;;15.20;13.60;;;;;;;;;;5110612;28;20180;-45
2021/01/08 07:24:36;;;;;;;16.13;14.03;;;;;;;;;;5096112;28;20231;-45
2021/01/08 07:27:17;;;;;;;17.43;13.20;;;;;;;;;;5112918;28;20960;-45
2021/01/08 07:29:53;;;;;;;14.93;13.37;;;;;;;;;;5112120;28;20642;-45
2021/01/08 07:32:33;;;;;;;16.70;13.27;;;;;;;;;;5110048;28;20593;-46
2021/01/08 07:34:59;;;;;;;15.57;13.60;;;;;;;;;;5111955;28;20587;-46
2021/01/08 07:37:43;;;;;;;15.75;13.52;;;;;;;;;;5106770;27;20620;-46
2021/01/08 07:40:08;;;;;;;16.30;14.10;;;;;;;;;;5093895;28;20208;-45
2021/01/08 07:42:34;;;;;;;15.53;12.77;;;;;;;;;;5109486;27;21043;-46
2021/01/08 07:45:00;;;;;;;17.20;14.70;;;;;;;;;;5113248;27;20545;-45
2021/01/08 07:47:25;;;;;;;16.57;13.70;;;;;;;;;;5111675;28;20679;-46
2021/01/08 07:50:09;;;;;;;16.10;13.63;;;;;;;;;;5110441;28;20212;-46
2021/01/08 07:52:35;;;;;;;17.77;13.83;;;;;;;;;;5113021;27;20177;-46
2021/01/08 07:55:00;;;;;;;16.33;14.10;;;;;;;;;;5118873;27;20629;-46
2021/01/08 07:57:26;;;;;;;15.80;14.10;;;;;;;;;;5111554;28;20583;-46
2021/01/08 07:59:51;;;;;;;16.65;13.82;;;;;;;;;;5111433;28;20235;-46
2021/01/08 08:02:16;;;;;;;19.13;15.13;;;;;;;;;;5109464;27;20172;-45
2021/01/08 08:04:42;;;;;;;18.97;15.60;;;;;;;;;;5118762;27;20259;-46
2021/01/08 08:07:10;;;;;;;18.97;15.97;;;;;;;;;;5113290;27;20243;-45
2021/01/08 08:09:35;;;;;;;19.83;15.13;;;;;;;;;;5120116;27;20342;-46
2021/01/08 08:12:07;;;;;;;20.13;15.60;;;;;;;;;;5114183;27;20699;-46
2021/01/08 08:14:32;;;;;;;21.60;16.57;;;;;;;;;;5129419;27;20203;-46
2021/01/08 08:16:58;;;;;;;21.10;17.13;;;;;;;;;;5111083;28;20604;-46
2021/01/08 08:19:31;;;;;;;24.03;16.93;;;;;;;;;;5111526;28;20667;-46
2021/01/08 08:21:56;;;;;;;24.17;19.30;;;;;;;;;;5109806;27;20179;-45
2021/01/08 08:24:21;;;;;;;24.53;17.63;;;;;;;;;;5107594;27;21482;-45
2021/01/08 08:26:46;;;;;;;20.00;16.90;;;;;;;;;;5111378;27;20192;-45
2021/01/08 08:29:15;;;;;;;22.17;17.70;;;;;;;;;;5111668;28;20241;-46
2021/01/08 08:31:41;;;;;;;20.17;16.93;;;;;;;;;;5108789;28;20218;-45
2021/01/08 08:34:10;;;;;;;21.33;16.03;;;;;;;;;;5123918;27;20650;-46
2021/01/08 08:36:36;;;;;;;19.20;15.80;;;;;;;;;;5115942;27;20634;-45
2021/01/08 08:39:03;;;;;;;21.33;16.70;;;;;;;;;;5116937;27;20957;-46
2021/01/08 08:41:29;;;;;;;18.47;16.47;;;;;;;;;;5113309;27;21019;-45
2021/01/08 08:44:14;;;;;;;17.10;15.23;;;;;;;;;;5108299;28;20624;-45
2021/01/08 08:46:39;;;;;;;24.40;16.70;;;;;;;;;;5110461;28;20196;-46
2021/01/08 08:49:06;;;;;;;19.10;15.50;;;;;;;;;;5109807;28;20645;-46
2021/01/08 08:51:31;;;;;;;17.87;14.43;;;;;;;;;;5111925;27;20174;-46
2021/01/08 08:53:57;;;;;;;17.27;14.43;;;;;;;;;;5110253;27;20610;-46
2021/01/08 08:56:22;;;;;;;17.60;14.70;;;;;;;;;;5110348;28;20212;-46
2021/01/08 08:58:47;;;;;;;16.43;13.87;;;;;;;;;;5109862;28;20642;-46
2021/01/08 09:01:13;;;;;;;16.83;14.97;;;;;;;;;;5118480;27;20216;-46
2021/01/08 09:03:38;;;;;;;16.03;14.10;;;;;;;;;;5107813;28;20677;-46
2021/01/08 09:06:09;;;;;;;15.90;13.97;;;;;;;;;;5112146;28;20177;-46
2021/01/08 09:08:37;;;;;;;19.40;14.83;;;;;;;;;;5107806;28;20207;-46
2021/01/08 09:11:03;;;;;;;16.37;14.63;;;;;;;;;;5105827;28;21154;-46
2021/01/08 09:13:37;;;;;;;16.47;14.60;;;;;;;;;;5105089;28;20603;-46
2021/01/08 09:16:02;;;;;;;16.17;14.43;;;;;;;;;;5105204;28;20595;-46
2021/01/08 09:18:43;;;;;;;16.55;14.82;;;;;;;;;;5108309;28;20600;-46
2021/01/08 09:21:08;;;;;;;16.47;13.80;;;;;;;;;;5109769;28;20693;-46
2021/01/08 09:23:35;;;;;;;20.98;16.80;;;;;;;;;;5107778;28;20965;-46
2021/01/08 09:26:05;;;;;;;19.50;17.40;;;;;;;;;;5110377;28;20523;-46
2021/01/08 09:28:38;;;;;;;21.40;17.50;;;;;;;;;;5109948;28;20634;-46
2021/01/08 09:31:03;;;;;;;19.17;16.97;;;;;;;;;;5109858;28;20965;-46
2021/01/08 09:33:28;;;;;;;19.10;16.93;;;;;;;;;;5109873;28;21124;-46
2021/01/08 09:35:54;;;;;;;20.10;16.17;;;;;;;;;;5110146;28;20219;-45
2021/01/08 09:38:23;;;;;;;17.60;15.30;;;;;;;;;;5110183;28;20170;-45
2021/01/08 09:40:48;;;;;;;17.43;14.90;;;;;;;;;;5109633;28;20185;-46
2021/01/08 09:43:16;;;;;;;17.67;15.32;;;;;;;;;;5103067;28;20770;-46
2021/01/08 09:45:42;;;;;;;16.97;15.17;;;;;;;;;;5110418;28;20172;-46
2021/01/08 09:48:19;;;;;;;18.87;16.13;;;;;;;;;;5108669;28;20684;-46
2021/01/08 09:50:44;;;;;;;16.73;14.90;;;;;;;;;;5108113;28;20176;-46
2021/01/08 09:53:10;;;;;;;18.17;15.63;;;;;;;;;;5107958;28;20562;-46
2021/01/08 09:55:35;;;;;;;16.90;15.07;;;;;;;;;;5109693;28;20168;-46
2021/01/08 09:58:01;;;;;;;18.63;15.77;;;;;;;;;;5109959;28;20245;-46
2021/01/08 10:00:27;;;;;;;22.00;15.17;;;;;;;;;;5109918;28;20174;-46
2021/01/08 10:02:52;;;;;;;15.40;13.80;;;;;;;;;;5106983;28;20655;-46
2021/01/08 10:05:17;;;;;;;13.87;12.57;;;;;;;;;;5109844;28;21054;-46
2021/01/08 10:07:42;;;;;;;11.15;10.05;;;;;;;;;;5109703;28;20168;-46
2021/01/08 10:10:11;;;;;;;10.30;9.30;;;;;;;;;;5109886;28;20165;-46
2021/01/08 10:12:46;;;;;;;11.83;10.73;;;;;;;;;;5109732;28;20581;-46
2021/01/08 10:15:16;;;;;;;10.70;9.70;;;;;;;;;;5113497;28;20578;-46
2021/01/08 10:17:47;;;;;;;10.60;9.50;;;;;;;;;;5113371;28;20564;-46
2021/01/08 10:20:14;;;;;;;10.70;9.70;;;;;;;;;;5112984;28;20643;-46
2021/01/08 10:22:46;;;;;;;9.70;8.80;;;;;;;;;;5111128;28;20587;-46
2021/01/08 10:25:23;;;;;;;10.77;9.80;;;;;;;;;;5113193;28;21172;-46
2021/01/08 10:27:49;;;;;;;10.67;9.37;;;;;;;;;;5112888;28;20582;-46
2021/01/08 10:30:14;;;;;;;9.57;8.60;;;;;;;;;;5113370;27;21039;-46
2021/01/08 10:32:46;;;;;;;10.47;9.47;;;;;;;;;;5112741;28;21210;-46
2021/01/08 10:35:12;;;;;;;10.30;9.30;;;;;;;;;;5113125;28;20170;-46
2021/01/08 10:37:37;;;;;;;9.47;8.57;;;;;;;;;;5113106;28;20598;-46
2021/01/08 10:40:02;;;;;;;9.95;9.15;;;;;;;;;;5113167;28;20177;-46
2021/01/08 10:42:27;;;;;;;10.60;9.60;;;;;;;;;;5111028;27;20259;-46
2021/01/08 10:44:52;;;;;;;10.10;9.20;;;;;;;;;;5112390;28;20170;-47
2021/01/08 10:47:18;;;;;;;10.65;9.73;;;;;;;;;;5115048;27;20226;-46
2021/01/08 10:49:43;;;;;;;9.40;8.60;;;;;;;;;;5131648;27;20197;-46
2021/01/08 10:52:09;;;;;;;9.45;8.55;;;;;;;;;;5130474;27;20906;-46
2021/01/08 10:54:34;;;;;;;9.50;8.70;;;;;;;;;;5120908;27;20188;-46
2021/01/08 10:56:59;;;;;;;10.63;9.63;;;;;;;;;;5112573;28;20529;-46
2021/01/08 10:59:25;;;;;;;9.93;8.93;;;;;;;;;;5112538;28;20187;-45
2021/01/08 11:01:50;;;;;;;10.63;9.70;;;;;;;;;;5112216;28;20180;-46
2021/01/08 11:04:15;;;;;;;13.43;10.37;;;;;;;;;;5110389;28;20535;-45
2021/01/08 11:06:41;;;;;;;12.27;11.00;;;;;;;;;;5112182;28;20238;-46
2021/01/08 11:09:06;;;;;;;58.28;37.75;;;;;;;;;;5112319;28;20293;-46
2021/01/08 11:11:32;;;;;;;29.63;22.40;;;;;;;;;;5112325;28;20179;-46
2021/01/08 11:13:57;;;;;;;12.97;9.67;;;;;;;;;;5106740;28;20176;-46
2021/01/08 11:16:22;;;;;;;15.20;13.80;;;;;;;;;;5111714;28;20524;-46
2021/01/08 11:18:47;;;;;;;13.60;12.30;;;;;;;;;;5112161;28;20170;-46
2021/01/08 11:21:16;;;;;;;11.70;10.70;;;;;;;;;;5111926;28;20229;-46
2021/01/08 11:23:41;;;;;;;9.60;8.70;;;;;;;;;;5108502;28;20239;-46
2021/01/08 11:26:07;;;;;;;9.85;8.95;;;;;;;;;;5111092;28;20610;-46
2021/01/08 11:28:32;;;;;;;8.90;8.10;;;;;;;;;;5110617;28;20202;-46
2021/01/08 11:30:57;;;;;;;10.00;9.10;;;;;;;;;;5113260;27;20169;-46
2021/01/08 11:33:22;;;;;;;9.10;8.27;;;;;;;;;;5111419;27;20216;-46
2021/01/08 11:35:47;;;;;;;9.60;8.80;;;;;;;;;;5111135;28;20181;-46
2021/01/08 11:38:12;;;;;;;9.43;8.63;;;;;;;;;;5111851;28;20256;-46
2021/01/08 11:40:37;;;;;;;10.50;9.60;;;;;;;;;;5111132;28;20200;-45
2021/01/08 11:43:02;;;;;;;10.27;9.38;;;;;;;;;;5105782;28;20245;-46
2021/01/08 11:45:28;;;;;;;10.32;9.43;;;;;;;;;;5109172;27;20228;-45
2021/01/08 11:47:53;;;;;;;9.77;8.88;;;;;;;;;;5111068;28;20185;-46
2021/01/08 11:50:18;;;;;;;8.98;8.18;;;;;;;;;;5110381;28;20197;-45
2021/01/08 11:52:43;;;;;;;9.45;8.48;;;;;;;;;;5108752;28;20202;-46
2021/01/08 11:55:09;;;;;;;8.53;7.83;;;;;;;;;;5109550;28;20235;-45
2021/01/08 11:57:34;;;;;;;9.03;8.33;;;;;;;;;;5111290;28;20177;-45
2021/01/08 11:59:59;;;;;;;9.15;8.35;;;;;;;;;;5110909;28;20651;-46
2021/01/08 12:02:24;;;;;;;8.50;7.70;;;;;;;;;;5111719;28;20181;-46
2021/01/08 12:04:49;;;;;;;9.27;8.47;;;;;;;;;;5108443;28;20170;-46
2021/01/08 12:07:14;;;;;;;8.50;7.77;;;;;;;;;;5111906;28;20690;-46
2021/01/08 12:09:40;;;;;;;8.80;8.10;;;;;;;;;;5110543;28;20208;-48
2021/01/08 12:12:05;;;;;;;9.00;8.20;;;;;;;;;;5111165;28;20662;-46
2021/01/08 12:14:31;;;;;;;8.93;8.13;;;;;;;;;;5101027;28;20266;-46
2021/01/08 12:17:01;;;;;;;9.60;8.70;;;;;;;;;;5102856;28;20249;-46
2021/01/08 12:19:26;;;;;;;10.07;9.17;;;;;;;;;;5111470;28;20214;-46
2021/01/08 12:21:52;;;;;;;8.50;7.70;;;;;;;;;;5110508;28;21284;-46
2021/01/08 12:24:17;;;;;;;9.75;8.90;;;;;;;;;;5108538;28;20197;-45
2021/01/08 12:26:42;;;;;;;9.68;8.57;;;;;;;;;;5109746;28;20170;-45
2021/01/08 12:29:08;;;;;;;8.80;8.00;;;;;;;;;;5110231;28;20248;-46
2021/01/08 12:31:34;;;;;;;9.80;8.80;;;;;;;;;;5110311;28;20165;-46
2021/01/08 12:33:59;;;;;;;8.67;7.97;;;;;;;;;;5108533;28;20681;-46
2021/01/08 12:36:24;;;;;;;9.18;8.43;;;;;;;;;;5111096;28;20173;-46
2021/01/08 12:38:49;;;;;;;10.70;9.70;;;;;;;;;;5110757;28;20778;-45
2021/01/08 12:41:15;;;;;;;9.70;8.90;;;;;;;;;;5111250;28;20680;-45
2021/01/08 12:43:40;;;;;;;9.30;8.40;;;;;;;;;;5108504;28;20253;-45
2021/01/08 12:46:06;;;;;;;9.20;8.40;;;;;;;;;;5110499;28;20178;-45
2021/01/08 12:48:31;;;;;;;8.80;8.03;;;;;;;;;;5110923;28;20287;-45
2021/01/08 12:50:56;;;;;;;8.30;7.60;;;;;;;;;;5110804;28;20228;-46
2021/01/08 12:53:21;;;;;;;9.43;8.52;;;;;;;;;;5108967;28;20177;-46
2021/01/08 12:55:46;;;;;;;9.45;8.55;;;;;;;;;;5110681;28;20170;-45
2021/01/08 12:58:12;;;;;;;9.57;8.73;;;;;;;;;;5110198;28;20172;-46
2021/01/08 13:00:37;;;;;;;8.70;7.93;;;;;;;;;;5109665;28;20257;-45
2021/01/08 13:03:02;;;;;;;8.77;7.97;;;;;;;;;;5108241;28;20181;-44
2021/01/08 13:05:27;;;;;;;9.13;8.33;;;;;;;;;;5110691;28;20166;-44
2021/01/08 13:07:52;;;;;;;9.40;8.57;;;;;;;;;;5110487;28;20171;-45
2021/01/08 13:10:18;;;;;;;8.82;8.07;;;;;;;;;;5110411;28;20246;-46
2021/01/08 13:12:43;;;;;;;7.00;6.40;;;;;;;;;;5110372;28;20551;-46
2021/01/08 13:15:08;;;;;;;9.00;8.20;;;;;;;;;;5108783;28;20221;-46
2021/01/08 13:17:33;;;;;;;8.07;7.27;;;;;;;;;;5110061;28;20589;-46
2021/01/08 13:20:00;;;;;;;9.80;8.90;;;;;;;;;;5111116;28;20230;-46
2021/01/08 13:22:25;;;;;;;8.43;7.63;;;;;;;;;;5122000;28;20231;-44
2021/01/08 13:24:50;;;;;;;8.00;7.28;;;;;;;;;;5108499;28;20604;-46
2021/01/08 13:27:15;;;;;;;8.33;7.53;;;;;;;;;;5110871;28;20180;-45
2021/01/08 13:29:41;;;;;;;15.17;13.03;;;;;;;;;;5110713;28;20197;-45
2021/01/08 13:32:06;;;;;;;11.33;10.33;;;;;;;;;;5109448;28;21197;-45
2021/01/08 13:34:32;;;;;;;8.83;8.10;;;;;;;;;;5107598;28;20195;-47
2021/01/08 13:36:57;;;;;;;9.07;8.37;;;;;;;;;;5095692;28;20508;-47
2021/01/08 13:39:23;;;;;;;8.40;7.60;;;;;;;;;;5109967;28;20584;-46
2021/01/08 13:42:02;;;;;;;8.80;8.00;;;;;;;;;;5108111;28;20178;-45
2021/01/08 13:44:27;;;;;;;9.47;8.57;;;;;;;;;;5105395;28;20604;-45
2021/01/08 13:46:52;;;;;;;9.90;9.00;;;;;;;;;;5111008;28;22385;-45
2021/01/08 13:49:17;;;;;;;9.30;8.40;;;;;;;;;;5104034;28;20301;-45
2021/01/08 13:51:42;;;;;;;11.00;9.50;;;;;;;;;;5115538;27;20172;-45
2021/01/08 13:54:08;;;;;;;12.60;11.40;;;;;;;;;;5116027;27;20258;-44
2021/01/08 13:56:33;;;;;;;12.50;11.37;;;;;;;;;;5116001;27;20256;-45
2021/01/08 13:58:58;;;;;;;12.00;10.80;;;;;;;;;;5112970;28;20255;-45
2021/01/08 14:01:23;;;;;;;13.47;11.57;;;;;;;;;;5113723;28;20301;-45
2021/01/08 14:03:49;;;;;;;9.97;9.17;;;;;;;;;;5112031;28;20654;-46
2021/01/08 14:06:32;;;;;;;9.37;8.50;;;;;;;;;;5115054;27;20178;-45
2021/01/08 14:08:57;;;;;;;9.37;8.47;;;;;;;;;;5112565;28;20204;-45
2021/01/08 14:11:26;;;;;;;8.80;7.93;;;;;;;;;;5114070;28;20603;-45
2021/01/08 14:13:52;;;;;;;9.40;8.50;;;;;;;;;;5112051;28;20708;-45
2021/01/08 14:16:18;;;;;;;9.10;8.20;;;;;;;;;;5114007;28;20687;-45
2021/01/08 14:18:43;;;;;;;8.83;8.03;;;;;;;;;;5109910;28;20546;-45
2021/01/08 14:21:08;;;;;;;9.35;8.55;;;;;;;;;;5113170;28;21117;-45
2021/01/08 14:23:33;;;;;;;9.57;8.77;;;;;;;;;;5112131;28;20807;-45
2021/01/08 14:25:59;;;;;;;10.00;9.10;;;;;;;;;;5110883;28;20263;-45